Pagrindinis puslapis
METAR-TAF:

METAR-TAF

Oro uostai :

Trolhetanas-Venešborgas, Švedija

platuma: 58-19N, ilguma: 012-21E, Aukštis: 41 m

Dabartinis oras

Ataskaita buvo paskelbta 44 minutes, ne 20:50 UTC
Vėjas 7 kt iš Pietų
Temperatūra 13°C
Drėgmė 94%
Slėgis 1010 hPa
Matomumas 10 km arba daugiau
lietus,

METAR: ESGT 162050Z AUTO 17007KT 9999 -RA FEW057/// SCT078/// BKN120/// 13/12 Q1010

Laikas: 23:34 (21:34 UTC)

Prognozė

Ataskaita buvo paskelbta 7 valandos ir 4 minutes, ne 14:30 UTC
Prognozė galioja nuo 16 metu 15 UTC su 16 metu 18 UTC
Vėjas 7 kt iš Rytų/Pietryčių
Matomumas 10 km arba daugiau
nėra debesų žemiau 1500 m ir nėra kamuolinių lietaus debesų
Laikinai
nuo 16 metu 15 UTC su 16 metu 18 UTC
Išsisklaidę debesys ne aukštis 5000 ft, Liūtiniai kamuoliniai debesys.
lietus,

TAF: ESGT 161430Z 1615/1618 11007KT CAVOK TEMPO 1615/1618 SHRA SCT050CB

Orai ataskaitas ir orų prognozės (METAR, TAF).

turimą stotys yra geltonos ir raudonos taškus žemėlapyje.

Perkelti pele per norėdami pamatyti stoties vardą.

Tada spustelėkite, norėdami matyti oro stebėjimo ir prognozės.

Norėdami pakeisti žemėlapį: spustelėkite ant žalios mygtukų su juodo kryžiaus žemyn,; žalią mygtuką su brūkšneliu, jei norite nutolinti; arba žalių rodyklių gretimoms žemėlapius.


METAR-TAF: